createdAt,value
2023-02-25T00:00:23.342Z,96196.06
2023-02-25T00:05:50.841Z,96202.96
2023-02-25T00:11:02.268Z,96207.06
2023-02-25T00:16:10.622Z,96214.64
2023-02-25T00:21:18.197Z,96203.17
2023-02-25T00:26:25.922Z,96186.99
2023-02-25T00:31:33.139Z,96163.38
2023-02-25T00:36:40.860Z,96149.50
2023-02-25T00:41:48.085Z,96157.10
2023-02-25T00:46:55.364Z,96145.39
2023-02-25T00:52:02.762Z,96127.26
2023-02-25T00:57:10.752Z,96132.48
2023-02-25T01:02:18.703Z,96125.21
2023-02-25T01:07:26.288Z,96121.40
2023-02-25T01:12:33.842Z,96120.33
2023-02-25T01:17:41.182Z,96119.26
2023-02-25T01:22:48.876Z,96118.79
2023-02-25T01:27:57.781Z,96101.48
2023-02-25T01:33:05.168Z,96100.38
2023-02-25T01:38:12.568Z,96094.10
2023-02-25T01:43:20.172Z,96092.45
2023-02-25T01:48:28.791Z,96097.40
2023-02-25T01:53:56.048Z,96102.69
2023-02-25T01:59:03.985Z,96093.80
2023-02-25T02:04:12.507Z,96105.13
2023-02-25T02:09:21.414Z,96093.72
2023-02-25T02:14:31.739Z,96084.94
2023-02-25T02:19:43.960Z,96081.89
2023-02-25T02:25:05.648Z,96089.41
2023-02-25T02:30:20.385Z,96096.38
2023-02-25T02:35:33.191Z,96089.63
2023-02-25T02:40:45.106Z,96084.73
2023-02-25T02:45:58.690Z,96081.27
2023-02-25T02:51:10.919Z,96065.83
2023-02-25T02:56:20.139Z,96068.62
2023-02-25T03:01:29.135Z,96077.41
2023-02-25T03:06:38.450Z,96082.88
2023-02-25T03:11:45.706Z,96093.48
2023-02-25T03:16:55.176Z,96104.66
2023-02-25T03:22:06.192Z,96130.90
2023-02-25T03:27:24.751Z,96126.05
2023-02-25T03:32:34.028Z,96131.63
2023-02-25T03:37:43.032Z,96143.73
2023-02-25T03:42:52.505Z,96152.95
2023-02-25T03:48:00.640Z,96153.20
2023-02-25T03:53:08.419Z,96151.29
2023-02-25T03:58:15.939Z,96163.77
2023-02-25T04:03:23.321Z,96161.39
2023-02-25T04:08:30.806Z,96162.64
2023-02-25T04:13:38.148Z,96163.18
2023-02-25T04:18:45.546Z,96163.90
2023-02-25T04:23:53.869Z,96158.92
2023-02-25T04:29:01.378Z,96156.19
2023-02-25T04:34:08.802Z,96152.55
2023-02-25T04:39:17.221Z,96155.52
2023-02-25T04:44:24.677Z,96147.88
2023-02-25T04:49:32.435Z,96144.80
2023-02-25T04:54:39.857Z,96147.73
2023-02-25T04:59:47.757Z,96146.15
2023-02-25T05:04:55.320Z,96149.12
2023-02-25T05:10:02.773Z,96148.90
2023-02-25T05:15:11.212Z,96145.27
2023-02-25T05:20:17.945Z,96147.15
2023-02-25T05:25:25.555Z,96144.89
2023-02-25T05:30:32.816Z,96151.42
2023-02-25T05:35:41.205Z,96161.71
2023-02-25T05:40:48.485Z,96166.94
2023-02-25T05:45:59.218Z,96166.80
2023-02-25T05:51:07.889Z,96169.74
2023-02-25T05:56:15.781Z,96169.70
2023-02-25T06:01:23.996Z,96171.73
2023-02-25T06:06:33.574Z,96174.30
2023-02-25T06:11:40.706Z,96188.48
2023-02-25T06:16:47.851Z,96184.94
2023-02-25T06:21:55.914Z,96193.36
2023-02-25T06:27:03.555Z,96195.89
2023-02-25T06:32:10.999Z,96197.42
2023-02-25T06:37:18.575Z,96186.23
2023-02-25T06:42:26.232Z,96190.29
2023-02-25T06:47:33.753Z,96200.25
2023-02-25T06:52:41.273Z,96210.83
2023-02-25T06:57:48.684Z,96200.52
2023-02-25T07:02:59.634Z,96191.17
2023-02-25T07:08:07.681Z,96196.34
2023-02-25T07:13:14.978Z,96198.91
2023-02-25T07:18:22.361Z,96198.45
2023-02-25T07:23:29.504Z,96199.42
2023-02-25T07:28:37.093Z,96198.94
2023-02-25T07:33:44.623Z,96193.71
2023-02-25T07:38:52.136Z,96194.83
2023-02-25T07:43:59.910Z,96186.70
2023-02-25T07:49:07.107Z,96188.26
2023-02-25T07:54:15.839Z,96184.44
2023-02-25T07:59:23.518Z,96188.08
2023-02-25T08:04:31.492Z,96188.08
2023-02-25T08:09:39.401Z,96188.77
2023-02-25T08:14:47.349Z,96198.37
2023-02-25T08:19:54.981Z,96198.80
2023-02-25T08:25:02.042Z,96204.17
2023-02-25T08:30:10.675Z,96211.08
2023-02-25T08:35:18.032Z,96212.52
2023-02-25T08:40:25.479Z,96208.49
2023-02-25T08:45:32.699Z,96200.09
2023-02-25T08:50:39.873Z,96195.49
2023-02-25T08:55:48.708Z,96199.98
2023-02-25T09:00:56.499Z,96199.44
2023-02-25T09:06:03.714Z,96206.67
2023-02-25T09:11:11.146Z,96199.48
2023-02-25T09:16:19.613Z,96196.56
2023-02-25T09:21:27.291Z,96195.02
2023-02-25T09:26:34.735Z,96197.42
2023-02-25T09:31:42.212Z,96199.80
2023-02-25T09:36:50.239Z,96193.46
2023-02-25T09:42:01.305Z,96202.27
2023-02-25T09:47:14.168Z,96203.22
2023-02-25T09:52:25.256Z,96201.23
2023-02-25T09:57:35.017Z,96193.26
2023-02-25T10:02:46.655Z,96196.33
2023-02-25T10:07:58.931Z,96204.43
2023-02-25T10:13:13.192Z,96212.41
2023-02-25T10:18:33.576Z,96222.80
2023-02-25T10:23:51.016Z,96222.74
2023-02-25T10:29:00.112Z,96221.85
2023-02-25T10:34:20.890Z,96231.02
2023-02-25T10:39:29.382Z,96226.55
2023-02-25T10:44:37.030Z,96218.20
2023-02-25T10:50:04.351Z,96216.95
2023-02-25T10:55:26.753Z,96216.21
2023-02-25T11:00:38.745Z,96218.46
2023-02-25T11:05:47.040Z,96221.24
2023-02-25T11:11:02.471Z,96237.72
2023-02-25T11:16:10.990Z,96227.36
2023-02-25T11:21:19.344Z,96231.34
2023-02-25T11:26:31.627Z,96225.25
2023-02-25T11:31:41.943Z,96218.18
2023-02-25T11:36:51.141Z,96211.29
2023-02-25T11:42:00.789Z,96205.35
2023-02-25T11:47:10.318Z,96214.48
2023-02-25T11:52:22.137Z,96214.00
2023-02-25T11:57:37.740Z,96219.48
2023-02-25T12:02:49.887Z,96215.45
2023-02-25T12:08:12.826Z,96225.14
2023-02-25T12:13:38.287Z,96261.16
2023-02-25T12:19:02.438Z,96279.03
2023-02-25T12:24:22.748Z,96285.63
2023-02-25T12:29:39.476Z,96285.75
2023-02-25T12:35:09.827Z,96295.88
2023-02-25T12:40:31.806Z,96292.06
2023-02-25T12:45:56.099Z,96286.19
2023-02-25T12:51:16.581Z,96279.54
2023-02-25T12:56:38.022Z,96280.37
2023-02-25T13:02:04.615Z,96281.64
2023-02-25T13:07:26.117Z,96288.80
2023-02-25T13:12:48.257Z,96298.98
2023-02-25T13:18:18.795Z,96301.20
2023-02-25T13:23:32.769Z,96310.00
2023-02-25T13:28:46.986Z,96312.36
2023-02-25T13:34:04.688Z,96319.80
2023-02-25T13:39:26.666Z,96325.02
2023-02-25T13:44:43.440Z,96333.23
2023-02-25T13:50:01.939Z,96335.51
2023-02-25T13:55:26.551Z,96329.54
2023-02-25T14:00:52.305Z,96338.88
2023-02-25T14:06:05.030Z,96343.91
2023-02-25T14:11:21.650Z,96355.63
2023-02-25T14:16:36.631Z,96357.31
2023-02-25T14:22:06.247Z,96370.67
2023-02-25T14:27:22.598Z,96401.73
2023-02-25T14:32:38.734Z,96401.54
2023-02-25T14:37:51.633Z,96391.59
2023-02-25T14:43:10.726Z,96387.59
2023-02-25T14:48:20.329Z,96401.63
2023-02-25T14:53:56.318Z,96416.77
2023-02-25T14:59:22.730Z,96424.17
2023-02-25T15:04:46.215Z,96431.50
2023-02-25T15:10:15.935Z,96436.29
2023-02-25T15:15:42.347Z,96442.30
2023-02-25T15:20:49.954Z,96453.23
2023-02-25T15:26:17.515Z,96461.70
2023-02-25T15:31:29.047Z,96465.04
2023-02-25T15:36:45.356Z,96468.23
2023-02-25T15:42:04.578Z,96473.05
2023-02-25T15:47:24.927Z,96483.43
2023-02-25T15:52:49.189Z,96484.95
2023-02-25T15:57:56.607Z,96495.15
2023-02-25T16:03:14.215Z,96509.09
2023-02-25T16:08:25.775Z,96520.17
2023-02-25T16:13:34.183Z,96526.09
2023-02-25T16:18:46.127Z,96536.83
2023-02-25T16:23:54.669Z,96547.93
2023-02-25T16:29:10.288Z,96555.21
2023-02-25T16:34:23.498Z,96557.02
2023-02-25T16:39:32.216Z,96566.40
2023-02-25T16:44:40.215Z,96567.59
2023-02-25T16:49:48.449Z,96570.45
2023-02-25T16:54:59.905Z,96580.91
2023-02-25T17:00:18.367Z,96585.98
2023-02-25T17:05:27.683Z,96597.22
2023-02-25T17:10:35.880Z,96608.40
2023-02-25T17:15:43.177Z,96618.27
2023-02-25T17:20:50.468Z,96626.15
2023-02-25T17:25:58.961Z,96631.54
2023-02-25T17:31:13.393Z,96636.70
2023-02-25T17:36:22.526Z,96640.30
2023-02-25T17:41:30.527Z,96641.84
2023-02-25T17:46:39.777Z,96647.80
2023-02-25T17:51:47.990Z,96659.26
2023-02-25T17:56:59.950Z,96666.16
2023-02-25T18:02:29.493Z,96674.36
2023-02-25T18:07:38.354Z,96677.33
2023-02-25T18:12:49.308Z,96681.73
2023-02-25T18:17:57.372Z,96691.21
2023-02-25T18:23:05.342Z,96703.87
2023-02-25T18:28:14.760Z,96707.06
2023-02-25T18:33:22.009Z,96717.13
2023-02-25T18:38:31.595Z,96722.72
2023-02-25T18:43:42.475Z,96729.96
2023-02-25T18:48:49.998Z,96740.59
2023-02-25T18:53:57.117Z,96749.24
2023-02-25T18:59:04.841Z,96752.39
2023-02-25T19:04:17.223Z,96762.15
2023-02-25T19:09:25.111Z,96766.38
2023-02-25T19:14:32.524Z,96776.24
2023-02-25T19:19:40.631Z,96786.94
2023-02-25T19:24:49.629Z,96793.60
2023-02-25T19:29:58.321Z,96805.27
2023-02-25T19:35:05.615Z,96813.25
2023-02-25T19:40:15.070Z,96815.67
2023-02-25T19:45:23.327Z,96820.70
2023-02-25T19:50:32.549Z,96824.72
2023-02-25T19:55:40.064Z,96823.56
2023-02-25T20:00:47.581Z,96826.30
2023-02-25T20:05:54.772Z,96830.74
2023-02-25T20:11:01.692Z,96832.43
2023-02-25T20:16:09.603Z,96836.74
2023-02-25T20:21:16.917Z,96843.09
2023-02-25T20:26:26.133Z,96844.10
2023-02-25T20:31:34.186Z,96845.70
2023-02-25T20:36:43.846Z,96852.38
2023-02-25T20:41:51.548Z,96857.55
2023-02-25T20:46:59.286Z,96870.98
2023-02-25T20:52:07.216Z,96881.64
2023-02-25T20:57:16.561Z,96891.58
2023-02-25T21:02:23.768Z,96894.65
2023-02-25T21:07:31.205Z,96899.02
2023-02-25T21:12:38.833Z,96903.73
2023-02-25T21:17:46.563Z,96904.59
2023-02-25T21:22:53.507Z,96904.28
2023-02-25T21:28:00.893Z,96902.30
2023-02-25T21:33:08.589Z,96905.04
2023-02-25T21:38:15.982Z,96915.61
2023-02-25T21:43:24.484Z,96918.16
2023-02-25T21:48:32.713Z,96922.45
2023-02-25T21:53:40.156Z,96925.67
2023-02-25T21:58:47.808Z,96928.64
2023-02-25T22:03:55.380Z,96929.69
2023-02-25T22:09:03.006Z,96936.51
2023-02-25T22:14:10.966Z,96942.06
2023-02-25T22:19:18.101Z,96948.49
2023-02-25T22:24:25.428Z,96953.46
2023-02-25T22:29:33.030Z,96972.92
2023-02-25T22:34:40.258Z,96981.97
2023-02-25T22:39:47.531Z,96998.65
2023-02-25T22:44:54.811Z,96998.58
2023-02-25T22:50:02.195Z,97010.14
2023-02-25T22:55:10.623Z,97016.27
2023-02-25T23:00:18.666Z,97023.42
2023-02-25T23:05:25.848Z,97032.10
2023-02-25T23:10:33.090Z,97043.12
2023-02-25T23:15:41.753Z,97046.73
2023-02-25T23:20:54.160Z,97052.07
2023-02-25T23:26:01.417Z,97055.73
2023-02-25T23:31:09.154Z,97063.59
2023-02-25T23:36:16.814Z,97067.52
2023-02-25T23:41:24.871Z,97077.65
2023-02-25T23:46:32.940Z,97081.92
2023-02-25T23:51:43.676Z,97090.30
2023-02-25T23:56:51.408Z,97098.86
